createdAt,value
2023-01-21T00:00:27.585Z,3.81
2023-01-21T00:02:29.365Z,3.81
2023-01-21T00:06:32.398Z,3.81
2023-01-21T00:08:34.387Z,3.81
2023-01-21T00:09:18.432Z,3.8
2023-01-21T00:11:20.243Z,3.81
2023-01-21T00:13:21.865Z,3.8
2023-01-21T00:17:25.559Z,3.8
2023-01-21T00:19:27.698Z,3.8
2023-01-21T00:21:29.377Z,3.81
2023-01-21T00:23:31.430Z,3.8
2023-01-21T00:27:35.097Z,3.8
2023-01-21T00:29:36.430Z,3.8
2023-01-21T00:31:37.738Z,3.8
2023-01-21T00:33:39.111Z,3.8
2023-01-21T00:35:40.970Z,3.8
2023-01-21T00:37:42.916Z,3.8
2023-01-21T00:39:44.786Z,3.8
2023-01-21T00:43:47.636Z,3.8
2023-01-21T00:45:49.457Z,3.8
2023-01-21T00:47:51.556Z,3.8
2023-01-21T00:49:53.700Z,3.8
2023-01-21T00:53:57.356Z,3.8
2023-01-21T00:55:59.576Z,3.8
2023-01-21T00:58:01.304Z,3.8
2023-01-21T01:00:02.714Z,3.8
2023-01-21T01:02:04.466Z,3.8
2023-01-21T01:04:05.966Z,3.8
2023-01-21T01:06:07.439Z,3.8
2023-01-21T01:10:10.121Z,3.8
2023-01-21T01:12:11.959Z,3.8
2023-01-21T01:14:13.225Z,3.8
2023-01-21T01:16:15.189Z,3.8
2023-01-21T01:18:17.114Z,3.8
2023-01-21T01:20:18.839Z,3.8
2023-01-21T01:22:20.376Z,3.8
2023-01-21T01:26:23.810Z,3.8
2023-01-21T01:28:25.845Z,3.8
2023-01-21T01:30:27.559Z,3.8
2023-01-21T01:32:28.693Z,3.8
2023-01-21T01:36:31.571Z,3.8
2023-01-21T01:38:33.636Z,3.8
2023-01-21T01:40:35.709Z,3.8
2023-01-21T01:42:37.067Z,3.8
2023-01-21T01:44:38.402Z,3.8
2023-01-21T01:46:40.405Z,3.8
2023-01-21T01:48:41.739Z,3.8
2023-01-21T01:52:44.790Z,3.8
2023-01-21T01:54:46.087Z,3.8
2023-01-21T01:56:47.554Z,3.8
2023-01-21T01:58:49.498Z,3.8
2023-01-21T02:00:51.163Z,3.8
2023-01-21T02:02:53.327Z,3.8
2023-01-21T02:04:54.832Z,3.79
2023-01-21T02:08:57.385Z,3.79
2023-01-21T02:10:58.570Z,3.79
2023-01-21T02:13:00.359Z,3.79
2023-01-21T02:15:01.744Z,3.79
2023-01-21T02:19:04.410Z,3.79
2023-01-21T02:21:06.309Z,3.79
2023-01-21T02:25:09.285Z,3.79
2023-01-21T02:27:11.240Z,3.79
2023-01-21T02:29:12.799Z,3.79
2023-01-21T02:31:14.451Z,3.79
2023-01-21T02:35:17.355Z,3.79
2023-01-21T02:37:18.938Z,3.79
2023-01-21T02:39:20.784Z,3.79
2023-01-21T02:41:22.175Z,3.79
2023-01-21T02:43:24.231Z,3.79
2023-01-21T02:45:25.800Z,3.79
2023-01-21T02:47:26.925Z,3.79
2023-01-21T02:51:30.431Z,3.79
2023-01-21T02:53:31.594Z,3.79
2023-01-21T02:55:32.859Z,3.78
2023-01-21T02:57:34.565Z,3.78
2023-01-21T03:01:37.775Z,3.78
2023-01-21T03:03:41.295Z,3.79
2023-01-21T03:07:43.001Z,3.79
2023-01-21T03:09:45.094Z,3.79
2023-01-21T03:11:46.831Z,3.78
2023-01-21T03:13:48.246Z,3.78
2023-01-21T03:17:51.176Z,3.79
2023-01-21T03:19:52.755Z,3.78
2023-01-21T03:21:54.061Z,3.79
2023-01-21T03:23:55.465Z,3.79
2023-01-21T03:25:57.530Z,3.78
2023-01-21T03:27:59.522Z,3.78
2023-01-21T03:30:01.674Z,3.78
2023-01-21T03:32:03.878Z,3.78
2023-01-21T03:34:05.103Z,3.78
2023-01-21T03:36:06.960Z,3.78
2023-01-21T03:38:08.798Z,3.78
2023-01-21T03:40:10.735Z,3.78
2023-01-21T03:44:13.946Z,3.78
2023-01-21T03:46:15.631Z,3.78
2023-01-21T03:50:19.448Z,3.78
2023-01-21T03:52:20.483Z,3.78
2023-01-21T03:54:22.680Z,3.78
2023-01-21T03:56:24.432Z,3.78
2023-01-21T04:00:27.586Z,3.78
2023-01-21T04:02:29.424Z,3.78
2023-01-21T04:04:30.902Z,3.78
2023-01-21T04:06:32.721Z,3.78
2023-01-21T04:08:34.485Z,3.78
2023-01-21T04:10:35.700Z,3.78
2023-01-21T04:12:37.081Z,3.78
2023-01-21T04:16:40.101Z,3.78
2023-01-21T04:18:41.150Z,3.78
2023-01-21T04:20:42.396Z,3.78
2023-01-21T04:22:43.583Z,3.78
2023-01-21T04:26:47.087Z,3.78
2023-01-21T04:28:48.508Z,3.78
2023-01-21T04:32:51.661Z,3.78
2023-01-21T04:34:53.163Z,3.78
2023-01-21T04:36:54.293Z,3.78
2023-01-21T04:38:55.580Z,3.78
2023-01-21T04:42:58.343Z,3.78
2023-01-21T04:45:00.249Z,3.78
2023-01-21T04:49:02.926Z,3.78
2023-01-21T04:51:04.368Z,3.78
2023-01-21T04:53:05.797Z,3.78
2023-01-21T04:55:07.358Z,3.77
2023-01-21T04:59:10.311Z,3.77
2023-01-21T05:01:12.410Z,3.78
2023-01-21T05:03:14.462Z,3.78
2023-01-21T05:05:15.820Z,3.77
2023-01-21T05:07:19.570Z,3.77
2023-01-21T05:09:19.777Z,3.77
2023-01-21T05:11:20.992Z,3.77
2023-01-21T05:13:22.660Z,3.77
2023-01-21T05:15:24.166Z,3.78
2023-01-21T05:17:25.306Z,3.77
2023-01-21T05:19:26.679Z,3.77
2023-01-21T05:21:28.654Z,3.77
2023-01-21T05:25:31.589Z,3.77
2023-01-21T05:27:32.839Z,3.77
2023-01-21T05:31:35.773Z,3.77
2023-01-21T05:33:37.399Z,3.77
2023-01-21T05:35:38.896Z,3.77
2023-01-21T05:37:40.104Z,3.77
2023-01-21T05:41:42.545Z,3.77
2023-01-21T05:43:43.861Z,3.77
2023-01-21T05:45:45.420Z,3.77
2023-01-21T05:47:55.367Z,3.77
2023-01-21T05:51:49.978Z,3.77
2023-01-21T05:53:51.956Z,3.77
2023-01-21T05:57:55.360Z,3.77
2023-01-21T05:59:56.549Z,3.77
2023-01-21T06:01:58.597Z,3.77
2023-01-21T06:04:00.085Z,3.77
2023-01-21T06:08:03.007Z,3.76
2023-01-21T06:10:04.172Z,3.77
2023-01-21T06:12:05.970Z,3.76
2023-01-21T06:14:07.384Z,3.76
2023-01-21T06:16:08.871Z,3.76
2023-01-21T06:18:10.200Z,3.76
2023-01-21T06:20:11.643Z,3.76
2023-01-21T06:24:15.068Z,3.76
2023-01-21T06:26:16.396Z,3.76
2023-01-21T06:28:17.999Z,3.76
2023-01-21T06:30:19.601Z,3.76
2023-01-21T06:32:20.810Z,3.76
2023-01-21T06:36:24.397Z,3.76
2023-01-21T06:38:26.425Z,3.76
2023-01-21T06:40:27.680Z,3.76
2023-01-21T06:42:29.013Z,3.76
2023-01-21T06:46:32.306Z,3.76
2023-01-21T06:48:33.353Z,3.76
2023-01-21T06:50:35.317Z,3.76
2023-01-21T06:52:37.056Z,3.76
2023-01-21T06:55:22.340Z,3.76
2023-01-21T06:57:24.293Z,3.76
2023-01-21T07:01:29.291Z,3.76
2023-01-21T07:03:29.259Z,3.76
2023-01-21T07:05:31.230Z,3.76
2023-01-21T07:07:32.763Z,3.76
2023-01-21T07:09:34.548Z,3.76
2023-01-21T07:11:36.085Z,3.76
2023-01-21T07:13:37.529Z,3.76
2023-01-21T07:17:41.239Z,3.76
2023-01-21T07:19:42.619Z,3.76
2023-01-21T07:21:44.673Z,3.76
2023-01-21T07:23:46.098Z,3.76
2023-01-21T07:25:47.836Z,3.76
2023-01-21T07:27:49.037Z,3.76
2023-01-21T07:29:50.911Z,3.76
2023-01-21T07:33:54.338Z,3.76
2023-01-21T07:35:55.970Z,3.75
2023-01-21T07:37:57.411Z,3.75
2023-01-21T07:39:58.552Z,3.75
2023-01-21T07:44:02.023Z,3.76
2023-01-21T07:46:03.541Z,3.75
2023-01-21T07:50:06.590Z,3.76
2023-01-21T07:52:08.062Z,3.75
2023-01-21T07:54:09.511Z,3.76
2023-01-21T07:56:11.409Z,3.75
2023-01-21T08:00:14.265Z,3.75
2023-01-21T08:02:15.571Z,3.75
2023-01-21T08:04:16.888Z,3.75
2023-01-21T08:06:18.363Z,3.76
2023-01-21T08:08:19.498Z,3.78
2023-01-21T08:10:21.561Z,3.78
2023-01-21T08:12:24.695Z,3.78
2023-01-21T08:16:27.295Z,3.79
2023-01-21T08:18:28.546Z,3.79
2023-01-21T08:20:30.306Z,3.8
2023-01-21T08:22:31.608Z,3.8
2023-01-21T08:24:33.216Z,3.8
2023-01-21T08:26:34.564Z,3.81
2023-01-21T08:28:35.872Z,3.82
2023-01-21T08:32:39.374Z,3.81
2023-01-21T08:34:41.178Z,3.81
2023-01-21T08:36:42.683Z,3.81
2023-01-21T08:38:44.419Z,3.82
2023-01-21T08:42:47.170Z,3.82
2023-01-21T08:44:48.557Z,3.82
2023-01-21T08:46:50.211Z,3.83
2023-01-21T08:48:52.055Z,3.83
2023-01-21T08:50:53.355Z,3.83
2023-01-21T08:52:54.766Z,3.83
2023-01-21T08:54:56.577Z,3.83
2023-01-21T08:59:00.343Z,3.83
2023-01-21T09:01:02.095Z,3.84
2023-01-21T09:03:03.721Z,3.84
2023-01-21T09:05:04.986Z,3.84
2023-01-21T09:07:06.539Z,3.85
2023-01-21T09:09:07.772Z,3.86
2023-01-21T09:11:09.264Z,3.86
2023-01-21T09:15:12.155Z,3.87
2023-01-21T09:17:13.536Z,3.87
2023-01-21T09:19:14.964Z,3.87
2023-01-21T09:21:16.271Z,3.87
2023-01-21T09:25:22.165Z,3.88
2023-01-21T09:27:20.917Z,3.88
2023-01-21T09:29:22.932Z,3.86
2023-01-21T09:31:24.146Z,3.86
2023-01-21T09:33:25.580Z,3.86
2023-01-21T09:35:26.838Z,3.86
2023-01-21T09:37:28.419Z,3.86
2023-01-21T09:41:32.210Z,3.86
2023-01-21T09:43:33.279Z,3.86
2023-01-21T09:45:34.859Z,3.87
2023-01-21T09:47:36.106Z,3.86
2023-01-21T09:49:37.498Z,3.86
2023-01-21T09:51:39.388Z,3.86
2023-01-21T09:53:40.702Z,3.87
2023-01-21T09:57:44.304Z,3.86
2023-01-21T09:59:46.332Z,3.86
2023-01-21T10:01:48.169Z,3.86
2023-01-21T10:03:49.550Z,3.86
2023-01-21T10:07:53.251Z,3.87
2023-01-21T10:09:54.981Z,3.87
2023-01-21T10:11:56.842Z,3.88
2023-01-21T10:13:58.756Z,3.88
2023-01-21T10:16:00.197Z,3.89
2023-01-21T10:18:01.708Z,3.89
2023-01-21T10:20:03.631Z,3.9
2023-01-21T10:24:06.316Z,3.88
2023-01-21T10:26:07.943Z,3.89
2023-01-21T10:28:08.980Z,3.89
2023-01-21T10:30:10.706Z,3.9
2023-01-21T10:32:12.227Z,3.9
2023-01-21T10:34:13.536Z,3.9
2023-01-21T10:36:15.240Z,3.9
2023-01-21T10:40:18.394Z,3.9
2023-01-21T10:42:20.155Z,3.9
2023-01-21T10:44:21.260Z,3.9
2023-01-21T10:46:23.077Z,3.9
2023-01-21T10:50:25.902Z,3.9
2023-01-21T10:52:27.828Z,3.9
2023-01-21T10:54:29.858Z,3.9
2023-01-21T10:56:31.480Z,3.9
2023-01-21T10:58:33.064Z,3.89
2023-01-21T11:00:34.422Z,3.89
2023-01-21T11:02:35.924Z,3.89
2023-01-21T11:06:39.283Z,3.89
2023-01-21T11:08:40.377Z,3.89
2023-01-21T11:10:41.589Z,3.89
2023-01-21T11:12:43.203Z,3.89
2023-01-21T11:14:44.561Z,3.89
2023-01-21T11:16:46.414Z,3.88
2023-01-21T11:18:48.146Z,3.88
2023-01-21T11:22:51.785Z,3.88
2023-01-21T11:24:53.456Z,3.88
2023-01-21T11:26:55.027Z,3.88
2023-01-21T11:28:56.216Z,3.88
2023-01-21T11:32:59.777Z,3.88
2023-01-21T11:35:00.969Z,3.88
2023-01-21T11:39:03.677Z,3.88
2023-01-21T11:41:05.658Z,3.88
2023-01-21T11:43:07.651Z,3.88
2023-01-21T11:45:09.067Z,3.88
2023-01-21T11:49:12.232Z,3.88
2023-01-21T11:51:14.109Z,3.88
2023-01-21T11:53:15.674Z,3.89
2023-01-21T11:55:17.606Z,3.89
2023-01-21T11:57:19.220Z,3.89
2023-01-21T11:59:20.420Z,3.89
2023-01-21T12:01:21.949Z,3.89
2023-01-21T12:05:25.440Z,3.89
2023-01-21T12:07:27.053Z,3.89
2023-01-21T12:09:28.494Z,3.9
2023-01-21T12:11:30.434Z,3.9
2023-01-21T12:15:33.399Z,3.9
2023-01-21T12:17:34.432Z,3.9
2023-01-21T12:21:37.034Z,3.9
2023-01-21T12:23:38.756Z,3.9
2023-01-21T12:25:40.221Z,3.9
2023-01-21T12:27:42.131Z,3.9
2023-01-21T12:31:45.358Z,3.89
2023-01-21T12:33:47.171Z,3.89
2023-01-21T12:35:48.952Z,3.89
2023-01-21T12:37:50.164Z,3.89
2023-01-21T12:39:51.471Z,3.89
2023-01-21T12:41:52.884Z,3.9
2023-01-21T12:43:54.831Z,3.9
2023-01-21T12:47:58.573Z,3.9
2023-01-21T12:50:00.489Z,3.91
2023-01-21T12:54:03.797Z,3.92
2023-01-21T12:58:07.239Z,3.91
2023-01-21T13:00:08.679Z,3.9
2023-01-21T13:04:11.617Z,3.9
2023-01-21T13:06:13.640Z,3.9
2023-01-21T13:10:16.727Z,3.91
2023-01-21T13:14:19.941Z,3.91
2023-01-21T13:16:21.673Z,3.91
2023-01-21T13:18:23.226Z,3.92
2023-01-21T13:20:24.561Z,3.91
2023-01-21T13:22:25.581Z,3.91
2023-01-21T13:24:27.203Z,3.9
2023-01-21T13:26:28.595Z,3.91
2023-01-21T13:30:31.056Z,3.91
2023-01-21T13:32:32.502Z,3.92
2023-01-21T13:34:34.481Z,3.92
2023-01-21T13:36:36.501Z,3.92
2023-01-21T13:40:40.076Z,3.92
2023-01-21T13:41:23.967Z,3.92
2023-01-21T13:43:25.590Z,3.92
2023-01-21T13:45:26.749Z,3.93
2023-01-21T13:47:28.420Z,3.92
2023-01-21T13:51:31.328Z,3.94
2023-01-21T13:53:33.323Z,3.94
2023-01-21T13:57:36.699Z,3.93
2023-01-21T13:59:37.916Z,3.93
2023-01-21T14:03:41.101Z,3.92
2023-01-21T14:07:44.747Z,3.92
2023-01-21T14:09:45.912Z,3.92
2023-01-21T14:11:47.920Z,3.92
2023-01-21T14:13:49.714Z,3.92
2023-01-21T14:17:52.110Z,3.91
2023-01-21T14:19:53.570Z,3.91
2023-01-21T14:21:55.154Z,3.91
2023-01-21T14:23:57.059Z,3.91
2023-01-21T14:25:58.870Z,3.91
2023-01-21T14:28:00.835Z,3.91
2023-01-21T14:30:02.575Z,3.91
2023-01-21T14:34:05.296Z,3.91
2023-01-21T14:36:06.475Z,3.9
2023-01-21T14:40:09.581Z,3.9
2023-01-21T14:42:10.829Z,3.9
2023-01-21T14:44:11.770Z,3.9
2023-01-21T14:46:12.984Z,3.9
2023-01-21T14:50:15.680Z,3.9
2023-01-21T14:52:17.513Z,3.9
2023-01-21T14:54:18.704Z,3.9
2023-01-21T14:56:19.958Z,3.9
2023-01-21T15:00:22.672Z,3.9
2023-01-21T15:02:31.814Z,3.9
2023-01-21T15:06:27.032Z,3.9
2023-01-21T15:08:28.409Z,3.9
2023-01-21T15:10:30.433Z,3.9
2023-01-21T15:12:31.513Z,3.9
2023-01-21T15:16:34.877Z,3.9
2023-01-21T15:18:36.728Z,3.9
2023-01-21T15:20:39.669Z,3.9
2023-01-21T15:22:40.646Z,3.9
2023-01-21T15:24:42.577Z,3.9
2023-01-21T15:28:45.514Z,3.9
2023-01-21T15:32:49.191Z,3.9
2023-01-21T15:34:51.151Z,3.9
2023-01-21T15:36:53.020Z,3.9
2023-01-21T15:38:54.491Z,3.9
2023-01-21T15:40:56.510Z,3.9
2023-01-21T15:42:58.126Z,3.9
2023-01-21T15:45:08.793Z,3.89
2023-01-21T15:47:01.286Z,3.9
2023-01-21T15:49:02.580Z,3.89
2023-01-21T15:51:03.792Z,3.89
2023-01-21T15:53:04.884Z,3.89
2023-01-21T15:55:05.946Z,3.89
2023-01-21T15:59:09.395Z,3.9
2023-01-21T16:01:10.625Z,3.89
2023-01-21T16:03:12.143Z,3.89
2023-01-21T16:05:14.158Z,3.89
2023-01-21T16:07:15.400Z,3.89
2023-01-21T16:09:17.145Z,3.89
2023-01-21T16:11:19.031Z,3.89
2023-01-21T16:15:21.741Z,3.89
2023-01-21T16:17:23.423Z,3.89
2023-01-21T16:19:25.399Z,3.89
2023-01-21T16:21:27.319Z,3.88
2023-01-21T16:23:28.417Z,3.89
2023-01-21T16:25:29.915Z,3.89
2023-01-21T16:27:31.873Z,3.89
2023-01-21T16:31:34.302Z,3.89
2023-01-21T16:33:35.693Z,3.89
2023-01-21T16:35:37.249Z,3.88
2023-01-21T16:37:38.698Z,3.88
2023-01-21T16:41:41.553Z,3.88
2023-01-21T16:43:43.760Z,3.88
2023-01-21T16:45:45.143Z,3.88
2023-01-21T16:47:46.400Z,3.88
2023-01-21T16:49:48.173Z,3.88
2023-01-21T16:51:49.867Z,3.88
2023-01-21T16:53:51.875Z,3.88
2023-01-21T16:57:55.791Z,3.88
2023-01-21T16:59:56.872Z,3.88
2023-01-21T17:01:58.079Z,3.88
2023-01-21T17:04:00.022Z,3.88
2023-01-21T17:06:01.591Z,3.88
2023-01-21T17:08:02.689Z,3.88
2023-01-21T17:10:04.644Z,3.88
2023-01-21T17:14:07.557Z,3.88
2023-01-21T17:16:08.806Z,3.88
2023-01-21T17:18:09.991Z,3.88
2023-01-21T17:20:11.748Z,3.88
2023-01-21T17:24:14.913Z,3.88
2023-01-21T17:26:16.121Z,3.88
2023-01-21T17:28:17.311Z,3.88
2023-01-21T17:30:18.663Z,3.88
2023-01-21T17:32:19.786Z,3.88
2023-01-21T17:34:21.747Z,3.88
2023-01-21T17:36:23.151Z,3.88
2023-01-21T17:40:26.795Z,3.88
2023-01-21T17:42:27.943Z,3.88
2023-01-21T17:44:29.277Z,3.88
2023-01-21T17:46:31.225Z,3.87
2023-01-21T17:48:32.895Z,3.88
2023-01-21T17:50:34.771Z,3.88
2023-01-21T17:52:36.407Z,3.87
2023-01-21T17:56:39.295Z,3.87
2023-01-21T17:58:41.258Z,3.87
2023-01-21T18:00:42.724Z,3.87
2023-01-21T18:02:44.700Z,3.87
2023-01-21T18:06:47.347Z,3.87
2023-01-21T18:08:48.932Z,3.87
2023-01-21T18:12:52.060Z,3.87
2023-01-21T18:14:53.301Z,3.87
2023-01-21T18:16:54.937Z,3.87
2023-01-21T18:18:56.033Z,3.87
2023-01-21T18:22:58.560Z,3.87
2023-01-21T18:25:00.209Z,3.87
2023-01-21T18:27:01.619Z,3.87
2023-01-21T18:29:02.949Z,3.87
2023-01-21T18:31:05.090Z,3.87
2023-01-21T18:33:06.164Z,3.87
2023-01-21T18:35:07.555Z,3.87
2023-01-21T18:39:11.331Z,3.87
2023-01-21T18:41:13.070Z,3.87
2023-01-21T18:43:15.012Z,3.86
2023-01-21T18:45:16.768Z,3.86
2023-01-21T18:49:19.483Z,3.87
2023-01-21T18:51:21.117Z,3.86
2023-01-21T18:53:22.834Z,3.87
2023-01-21T18:55:23.923Z,3.87
2023-01-21T18:57:25.023Z,3.86
2023-01-21T18:59:26.693Z,3.86
2023-01-21T19:01:28.577Z,3.86
2023-01-21T19:05:31.858Z,3.86
2023-01-21T19:07:33.186Z,3.86
2023-01-21T19:11:36.755Z,3.86
2023-01-21T19:13:37.861Z,3.86
2023-01-21T19:15:39.612Z,3.86
2023-01-21T19:17:40.879Z,3.86
2023-01-21T19:21:43.574Z,3.86
2023-01-21T19:23:44.937Z,3.86
2023-01-21T19:25:46.252Z,3.86
2023-01-21T19:27:47.404Z,3.86
2023-01-21T19:31:50.051Z,3.86
2023-01-21T19:33:51.540Z,3.86
2023-01-21T19:35:52.705Z,3.86
2023-01-21T19:37:54.561Z,3.86
2023-01-21T19:39:55.695Z,3.86
2023-01-21T19:42:07.520Z,3.86
2023-01-21T19:43:58.497Z,3.86
2023-01-21T19:48:01.403Z,3.86
2023-01-21T19:50:02.544Z,3.86
2023-01-21T19:52:04.125Z,3.86
2023-01-21T19:54:05.359Z,3.86
2023-01-21T19:56:07.079Z,3.86
2023-01-21T19:58:08.697Z,3.86
2023-01-21T20:00:09.967Z,3.86
2023-01-21T20:02:11.421Z,3.86
2023-01-21T20:04:13.316Z,3.86
2023-01-21T20:06:14.553Z,3.86
2023-01-21T20:08:16.505Z,3.85
2023-01-21T20:10:17.864Z,3.85
2023-01-21T20:12:19.523Z,3.85
2023-01-21T20:14:21.022Z,3.85
2023-01-21T20:16:22.521Z,3.85
2023-01-21T20:20:25.166Z,3.85
2023-01-21T20:22:26.582Z,3.85
2023-01-21T20:26:29.711Z,3.86
2023-01-21T20:27:14.240Z,3.85
2023-01-21T20:29:15.362Z,3.85
2023-01-21T20:31:16.852Z,3.85
2023-01-21T20:33:17.984Z,3.85
2023-01-21T20:35:19.377Z,3.85
2023-01-21T20:37:20.732Z,3.85
2023-01-21T20:41:23.656Z,3.85
2023-01-21T20:43:24.744Z,3.85
2023-01-21T20:45:25.889Z,3.85
2023-01-21T20:47:32.561Z,3.85
2023-01-21T20:49:28.975Z,3.85
2023-01-21T20:51:30.647Z,3.85
2023-01-21T20:53:31.954Z,3.85
2023-01-21T20:57:35.137Z,3.85
2023-01-21T20:59:36.318Z,3.84
2023-01-21T21:01:38.133Z,3.84
2023-01-21T21:03:39.621Z,3.85
2023-01-21T21:07:42.790Z,3.85
2023-01-21T21:09:43.840Z,3.84
2023-01-21T21:13:47.332Z,3.84
2023-01-21T21:15:48.967Z,3.84
2023-01-21T21:17:50.320Z,3.84
2023-01-21T21:19:52.190Z,3.85
2023-01-21T21:23:56.202Z,3.84
2023-01-21T21:25:57.576Z,3.84
2023-01-21T21:27:59.078Z,3.84
2023-01-21T21:30:00.986Z,3.84
2023-01-21T21:32:02.635Z,3.84
2023-01-21T21:34:03.825Z,3.84
2023-01-21T21:36:05.317Z,3.84
2023-01-21T21:40:08.491Z,3.84
2023-01-21T21:42:10.480Z,3.84
2023-01-21T21:44:12.076Z,3.84
2023-01-21T21:46:13.538Z,3.84
2023-01-21T21:50:16.082Z,3.84
2023-01-21T21:52:17.517Z,3.84
2023-01-21T21:54:18.858Z,3.84
2023-01-21T21:56:20.875Z,3.84
2023-01-21T21:58:22.657Z,3.84
2023-01-21T22:00:24.333Z,3.84
2023-01-21T22:02:26.088Z,3.84
2023-01-21T22:06:28.698Z,3.84
2023-01-21T22:08:30.168Z,3.84
2023-01-21T22:10:32.055Z,3.84
2023-01-21T22:12:33.491Z,3.84
2023-01-21T22:14:35.050Z,3.84
2023-01-21T22:16:36.244Z,3.84
2023-01-21T22:18:37.575Z,3.84
2023-01-21T22:22:41.096Z,3.84
2023-01-21T22:24:42.749Z,3.84
2023-01-21T22:26:44.179Z,3.84
2023-01-21T22:28:45.726Z,3.84
2023-01-21T22:32:48.879Z,3.83
2023-01-21T22:34:49.949Z,3.84
2023-01-21T22:36:51.443Z,3.83
2023-01-21T22:38:53.419Z,3.83
2023-01-21T22:40:54.918Z,3.84
2023-01-21T22:42:56.266Z,3.83
2023-01-21T22:44:57.454Z,3.83
2023-01-21T22:48:59.711Z,3.83
2023-01-21T22:51:01.138Z,3.83
2023-01-21T22:55:04.264Z,3.83
2023-01-21T22:57:06.159Z,3.83
2023-01-21T22:59:07.390Z,3.83
2023-01-21T23:01:08.667Z,3.83
2023-01-21T23:05:11.266Z,3.83
2023-01-21T23:07:12.843Z,3.83
2023-01-21T23:09:14.666Z,3.83
2023-01-21T23:11:16.184Z,3.83
2023-01-21T23:15:19.685Z,3.83
2023-01-21T23:17:21.652Z,3.83
2023-01-21T23:19:23.293Z,3.83
2023-01-21T23:21:24.875Z,3.83
2023-01-21T23:23:26.354Z,3.83
2023-01-21T23:25:28.248Z,3.83
2023-01-21T23:27:29.751Z,3.83
2023-01-21T23:31:32.778Z,3.82
2023-01-21T23:33:34.618Z,3.82
2023-01-21T23:37:37.799Z,3.83
2023-01-21T23:39:39.755Z,3.83
2023-01-21T23:41:41.044Z,3.82
2023-01-21T23:43:42.660Z,3.82
2023-01-21T23:47:45.753Z,3.83
2023-01-21T23:49:46.997Z,3.82
2023-01-21T23:51:48.738Z,3.82
2023-01-21T23:53:50.179Z,3.82
2023-01-21T23:55:51.730Z,3.82
2023-01-21T23:57:53.392Z,3.82
2023-01-21T23:59:55.416Z,3.82
